createdAt,value
2019-04-03T00:01:40.435Z,2.68
2019-04-03T00:04:11.174Z,2.69
2019-04-03T00:06:41.116Z,2.64
2019-04-03T00:09:11.236Z,2.64
2019-04-03T00:11:41.322Z,2.62
2019-04-03T00:14:12.880Z,2.59
2019-04-03T00:16:43.741Z,2.55
2019-04-03T00:19:17.344Z,2.53
2019-04-03T00:21:47.073Z,2.56
2019-04-03T00:24:17.379Z,2.59
2019-04-03T00:26:47.226Z,2.59
2019-04-03T00:29:17.570Z,2.57
2019-04-03T00:31:47.974Z,2.59
2019-04-03T00:34:18.288Z,2.59
2019-04-03T00:36:48.302Z,2.59
2019-04-03T00:39:18.537Z,2.56
2019-04-03T00:41:49.303Z,2.55
2019-04-03T00:44:19.353Z,2.53
2019-04-03T00:46:50.571Z,2.48
2019-04-03T00:49:20.714Z,2.43
2019-04-03T00:51:50.698Z,2.36
2019-04-03T00:54:20.579Z,2.37
2019-04-03T00:56:50.459Z,2.33
2019-04-03T00:59:20.570Z,2.27
2019-04-03T01:01:50.404Z,2.21
2019-04-03T01:04:20.471Z,2.18
2019-04-03T01:06:50.311Z,2.14
2019-04-03T01:09:20.630Z,2.12
2019-04-03T01:11:50.739Z,2.17
2019-04-03T01:14:20.947Z,2.17
2019-04-03T01:16:50.964Z,2.12
2019-04-03T01:19:21.255Z,2.13
2019-04-03T01:21:51.264Z,2.15
2019-04-03T01:24:22.228Z,2.15
2019-04-03T01:26:52.366Z,2.09
2019-04-03T01:29:22.455Z,2.07
2019-04-03T01:31:52.193Z,2.10
2019-04-03T01:34:22.327Z,2.10
2019-04-03T01:36:52.478Z,2.06
2019-04-03T01:39:22.610Z,2.02
2019-04-03T01:41:56.498Z,2.04
2019-04-03T01:44:26.437Z,2.08
2019-04-03T01:46:57.680Z,2.07
2019-04-03T01:49:28.671Z,2.06
2019-04-03T01:52:00.729Z,2.00
2019-04-03T01:54:31.595Z,2.02
2019-04-03T01:57:06.010Z,2.05
2019-04-03T01:59:37.086Z,2.07
2019-04-03T02:02:08.331Z,2.07
2019-04-03T02:04:38.564Z,1.99
2019-04-03T02:07:08.757Z,1.94
2019-04-03T02:09:38.738Z,1.90
2019-04-03T02:12:08.762Z,1.90
2019-04-03T02:14:38.484Z,1.86
2019-04-03T02:17:08.788Z,1.85
2019-04-03T02:19:38.646Z,1.89
2019-04-03T02:22:08.650Z,1.89
2019-04-03T02:24:38.745Z,1.89
2019-04-03T02:27:09.132Z,1.91
2019-04-03T02:29:39.865Z,1.96
2019-04-03T02:32:10.604Z,1.98
2019-04-03T02:34:40.773Z,2.04
2019-04-03T02:37:11.013Z,2.03
2019-04-03T02:39:40.693Z,2.06
2019-04-03T02:42:10.605Z,2.09
2019-04-03T02:44:40.397Z,2.10
2019-04-03T02:47:10.480Z,2.09
2019-04-03T02:49:42.724Z,2.06
2019-04-03T02:52:12.299Z,2.04
2019-04-03T02:54:42.561Z,2.01
2019-04-03T02:57:16.687Z,2.00
2019-04-03T02:59:44.489Z,2.02
2019-04-03T03:02:14.693Z,2.05
2019-04-03T03:04:44.933Z,2.05
2019-04-03T03:07:14.930Z,2.06
2019-04-03T03:09:47.184Z,2.07
2019-04-03T03:12:17.998Z,2.05
2019-04-03T03:14:48.527Z,2.03
2019-04-03T03:17:21.523Z,2.03
2019-04-03T03:19:51.964Z,2.07
2019-04-03T03:22:22.628Z,2.09
2019-04-03T03:24:53.594Z,2.10
2019-04-03T03:27:26.698Z,2.16
2019-04-03T03:29:59.678Z,2.18
2019-04-03T03:32:34.070Z,2.23
2019-04-03T03:35:11.671Z,2.29
2019-04-03T03:37:35.586Z,2.34
2019-04-03T03:40:06.755Z,2.38
2019-04-03T03:42:37.018Z,2.46
2019-04-03T03:45:07.826Z,2.53
2019-04-03T03:47:42.197Z,2.63
2019-04-03T03:50:12.855Z,2.68
2019-04-03T03:52:43.498Z,2.74
2019-04-03T03:55:13.456Z,2.82
2019-04-03T03:57:43.906Z,2.90
2019-04-03T04:00:14.466Z,2.96
2019-04-03T04:02:45.309Z,3.03
2019-04-03T04:05:17.553Z,3.09
2019-04-03T04:07:47.734Z,3.17
2019-04-03T04:10:17.939Z,3.25
2019-04-03T04:12:48.980Z,3.33
2019-04-03T04:15:19.119Z,3.43
2019-04-03T04:17:51.296Z,3.51
2019-04-03T04:20:21.417Z,3.57
2019-04-03T04:22:51.593Z,3.62
2019-04-03T04:25:22.375Z,3.67
2019-04-03T04:27:52.229Z,3.71
2019-04-03T04:30:22.725Z,3.81
2019-04-03T04:32:53.397Z,3.89
2019-04-03T04:35:23.469Z,3.97
2019-04-03T04:37:55.289Z,4.02
2019-04-03T04:40:25.642Z,4.09
2019-04-03T04:42:56.193Z,4.15
2019-04-03T04:45:26.455Z,4.19
2019-04-03T04:47:57.562Z,4.24
2019-04-03T04:50:27.615Z,4.29
2019-04-03T04:52:58.700Z,4.34
2019-04-03T04:55:31.329Z,4.41
2019-04-03T04:58:01.377Z,4.47
2019-04-03T05:00:31.498Z,4.52
2019-04-03T05:03:02.419Z,4.56
2019-04-03T05:05:32.544Z,4.61
2019-04-03T05:08:02.674Z,4.66
2019-04-03T05:10:32.906Z,4.72
2019-04-03T05:13:02.871Z,4.79
2019-04-03T05:15:33.141Z,4.86
2019-04-03T05:18:03.932Z,4.93
2019-04-03T05:20:34.165Z,4.99
2019-04-03T05:23:04.404Z,5.04
2019-04-03T05:25:34.530Z,5.10
2019-04-03T05:28:04.848Z,5.15
2019-04-03T05:30:37.110Z,5.17
2019-04-03T05:33:07.633Z,5.22
2019-04-03T05:35:39.383Z,5.29
2019-04-03T05:38:09.577Z,5.35
2019-04-03T05:40:40.307Z,5.43
2019-04-03T05:43:10.749Z,5.50
2019-04-03T05:45:42.133Z,5.55
2019-04-03T05:48:13.596Z,5.58
2019-04-03T05:50:44.068Z,5.61
2019-04-03T05:53:14.202Z,5.66
2019-04-03T05:55:44.571Z,5.70
2019-04-03T05:58:16.464Z,5.74
2019-04-03T06:00:47.392Z,5.76
2019-04-03T06:03:17.152Z,5.85
2019-04-03T06:05:47.389Z,5.92
2019-04-03T06:08:19.952Z,6.01
2019-04-03T06:10:49.904Z,6.10
2019-04-03T06:13:20.075Z,6.17
2019-04-03T06:15:52.726Z,6.25
2019-04-03T06:18:21.901Z,6.32
2019-04-03T06:20:52.295Z,6.39
2019-04-03T06:23:22.773Z,6.48
2019-04-03T06:25:53.030Z,6.49
2019-04-03T06:28:23.380Z,6.53
2019-04-03T06:30:56.596Z,6.55
2019-04-03T06:33:31.523Z,6.60
2019-04-03T06:36:01.852Z,6.59
2019-04-03T06:38:32.136Z,6.63
2019-04-03T06:41:02.045Z,6.68
2019-04-03T06:43:31.865Z,6.73
2019-04-03T06:46:02.669Z,6.81
2019-04-03T06:48:32.835Z,6.90
2019-04-03T06:51:04.112Z,6.96
2019-04-03T06:53:34.562Z,7.04
2019-04-03T06:56:07.828Z,7.04
2019-04-03T06:58:39.659Z,7.04
2019-04-03T07:01:09.593Z,7.05
2019-04-03T07:03:39.753Z,7.06
2019-04-03T07:06:09.785Z,7.09
2019-04-03T07:08:41.155Z,7.13
2019-04-03T07:11:22.703Z,7.20
2019-04-03T07:13:43.881Z,7.32
2019-04-03T07:16:14.122Z,7.39
2019-04-03T07:18:44.778Z,7.45
2019-04-03T07:21:15.301Z,7.43
2019-04-03T07:23:45.884Z,7.42
2019-04-03T07:26:15.864Z,7.44
2019-04-03T07:28:47.250Z,7.49
2019-04-03T07:31:17.572Z,7.55
2019-04-03T07:33:48.002Z,7.65
2019-04-03T07:36:18.238Z,7.72
2019-04-03T07:38:48.824Z,7.77
2019-04-03T07:41:22.101Z,7.83
2019-04-03T07:43:51.502Z,7.86
2019-04-03T07:46:21.805Z,7.90
2019-04-03T07:48:52.015Z,7.91
2019-04-03T07:51:21.998Z,7.91
2019-04-03T07:53:52.957Z,7.90
2019-04-03T07:56:25.835Z,7.91
2019-04-03T07:58:56.245Z,7.95
2019-04-03T08:01:29.733Z,7.99
2019-04-03T08:04:00.929Z,7.93
2019-04-03T08:06:35.874Z,7.95
2019-04-03T08:09:09.740Z,7.95
2019-04-03T08:11:39.836Z,7.94
2019-04-03T08:14:12.968Z,7.98
2019-04-03T08:16:43.343Z,7.98
2019-04-03T08:19:13.818Z,7.99
2019-04-03T08:21:44.001Z,8.08
2019-04-03T08:24:14.522Z,8.18
2019-04-03T08:26:50.524Z,8.28
2019-04-03T08:29:20.113Z,8.34
2019-04-03T08:31:50.718Z,8.40
2019-04-03T08:34:22.912Z,8.48
2019-04-03T08:36:53.233Z,8.55
2019-04-03T08:39:27.175Z,8.60
2019-04-03T08:41:57.396Z,8.70
2019-04-03T08:44:28.023Z,8.74
2019-04-03T08:46:58.354Z,8.68
2019-04-03T08:49:28.467Z,8.55
2019-04-03T08:51:58.623Z,8.52
2019-04-03T08:54:28.841Z,8.62
2019-04-03T08:56:59.038Z,8.70
2019-04-03T08:59:29.312Z,8.74
2019-04-03T09:01:59.599Z,8.79
2019-04-03T09:04:29.769Z,8.87
2019-04-03T09:07:00.800Z,8.84
2019-04-03T09:09:34.415Z,8.84
2019-04-03T09:12:05.618Z,8.91
2019-04-03T09:14:36.072Z,8.94
2019-04-03T09:17:06.335Z,9.01
2019-04-03T09:19:36.442Z,9.00
2019-04-03T09:22:06.376Z,8.94
2019-04-03T09:24:36.376Z,8.91
2019-04-03T09:27:08.141Z,8.86
2019-04-03T09:29:38.567Z,8.81
2019-04-03T09:32:09.040Z,8.78
2019-04-03T09:34:39.221Z,8.78
2019-04-03T09:37:09.691Z,8.86
2019-04-03T09:39:39.638Z,8.99
2019-04-03T09:42:10.194Z,9.03
2019-04-03T09:44:40.844Z,9.05
2019-04-03T09:47:10.883Z,9.03
2019-04-03T09:49:43.761Z,9.10
2019-04-03T09:52:13.028Z,9.20
2019-04-03T09:54:43.377Z,9.28
2019-04-03T09:57:13.375Z,9.30
2019-04-03T09:59:44.052Z,9.28
2019-04-03T10:02:14.637Z,9.30
2019-04-03T10:04:44.737Z,9.30
2019-04-03T10:07:15.221Z,9.27
2019-04-03T10:09:45.525Z,9.29
2019-04-03T10:12:15.741Z,9.27
2019-04-03T10:14:46.170Z,9.30
2019-04-03T10:17:16.087Z,9.30
2019-04-03T10:19:46.382Z,9.33
2019-04-03T10:22:18.432Z,9.38
2019-04-03T10:24:48.831Z,9.43
2019-04-03T10:27:19.175Z,9.45
2019-04-03T10:29:50.710Z,9.45
2019-04-03T10:32:22.486Z,9.40
2019-04-03T10:34:52.748Z,9.37
2019-04-03T10:37:23.484Z,9.29
2019-04-03T10:39:54.009Z,9.21
2019-04-03T10:42:24.797Z,9.20
2019-04-03T10:44:57.955Z,9.30
2019-04-03T10:47:40.479Z,9.40
2019-04-03T10:50:02.237Z,9.53
2019-04-03T10:52:32.767Z,9.59
2019-04-03T10:55:03.621Z,9.57
2019-04-03T11:05:15.348Z,9.78
2019-04-03T11:07:45.882Z,9.71
2019-04-03T11:10:16.993Z,9.70
2019-04-03T11:12:47.701Z,9.75
2019-04-03T11:15:18.472Z,9.82
2019-04-03T11:17:49.952Z,9.85
2019-04-03T11:20:20.608Z,9.80
2019-04-03T11:23:04.439Z,9.77
2019-04-03T11:25:24.848Z,9.78
2019-04-03T11:27:56.213Z,9.71
2019-04-03T11:31:01.099Z,9.73
2019-04-03T11:33:31.897Z,9.72
2019-04-03T11:36:40.991Z,9.67
2019-04-03T11:49:38.809Z,9.90
2019-04-03T11:52:09.728Z,9.86
2019-04-03T11:54:44.103Z,9.84
2019-04-03T11:57:16.391Z,9.84
2019-04-03T11:59:47.470Z,9.92
2019-04-03T12:02:21.819Z,9.98
2019-04-03T12:04:52.121Z,10.02
2019-04-03T12:07:23.160Z,10.02
2019-04-03T12:10:26.046Z,10.02
2019-04-03T12:12:57.145Z,9.96
2019-04-03T12:15:27.487Z,9.97
2019-04-03T12:18:00.830Z,10.05
2019-04-03T12:20:29.870Z,10.19
2019-04-03T12:23:00.384Z,10.57
2019-04-03T12:25:31.460Z,11.72
2019-04-03T12:28:03.143Z,13.13
2019-04-03T12:30:36.839Z,14.35
2019-04-03T12:33:07.336Z,15.51
2019-04-03T12:35:42.230Z,16.73
2019-04-03T12:38:12.522Z,17.62
2019-04-03T12:40:42.842Z,18.04
2019-04-03T12:43:13.161Z,18.77
2019-04-03T12:45:43.698Z,19.68
2019-04-03T12:48:17.056Z,20.62
2019-04-03T12:50:47.013Z,21.40
2019-04-03T12:53:17.514Z,22.30
2019-04-03T12:55:49.930Z,22.67
2019-04-03T12:58:24.776Z,22.77
2019-04-03T13:00:56.105Z,23.15
2019-04-03T13:03:26.328Z,23.42
2019-04-03T13:05:59.635Z,23.80
2019-04-03T13:08:31.095Z,23.93
2019-04-03T13:11:04.156Z,23.55
2019-04-03T13:13:34.894Z,23.10
2019-04-03T13:16:08.852Z,23.07
2019-04-03T13:18:37.572Z,22.65
2019-04-03T13:21:09.370Z,23.02
2019-04-03T13:23:40.084Z,23.66
2019-04-03T13:26:10.661Z,23.89
2019-04-03T13:28:41.473Z,24.16
2019-04-03T13:31:16.005Z,23.89
2019-04-03T13:33:47.095Z,23.58
2019-04-03T13:36:18.707Z,24.12
2019-04-03T13:38:51.255Z,24.94
2019-04-03T13:41:21.803Z,25.49
2019-04-03T13:43:54.392Z,25.71
2019-04-03T13:46:25.623Z,25.68
2019-04-03T13:48:56.053Z,25.66
2019-04-03T13:51:27.247Z,25.67
2019-04-03T13:53:57.912Z,25.65
2019-04-03T13:56:32.540Z,25.68
2019-04-03T13:59:02.816Z,25.71
2019-04-03T14:01:32.658Z,25.48
2019-04-03T14:04:06.882Z,25.38
2019-04-03T14:06:37.300Z,25.59
2019-04-03T14:09:08.192Z,25.96
2019-04-03T14:11:38.821Z,26.02
2019-04-03T14:14:08.912Z,26.07
2019-04-03T14:16:39.379Z,26.15
2019-04-03T14:19:11.836Z,25.85
2019-04-03T14:21:41.798Z,25.18
2019-04-03T14:24:12.560Z,24.82
2019-04-03T14:26:45.631Z,24.81
2019-04-03T14:29:19.244Z,24.84
2019-04-03T14:31:50.013Z,24.98
2019-04-03T14:34:20.123Z,24.91
2019-04-03T14:36:51.132Z,24.13
2019-04-03T14:39:22.031Z,22.85
2019-04-03T14:41:54.294Z,20.58
2019-04-03T14:44:26.102Z,18.45
2019-04-03T14:46:56.686Z,16.64
2019-04-03T14:49:26.886Z,15.59
2019-04-03T14:52:14.947Z,14.78
2019-04-03T14:54:48.432Z,14.00
2019-04-03T14:57:23.160Z,13.26
2019-04-03T14:59:52.256Z,12.68
2019-04-03T15:02:23.881Z,12.19
2019-04-03T15:04:54.804Z,11.72
2019-04-03T15:07:25.124Z,11.44
2019-04-03T15:09:55.476Z,11.19
2019-04-03T15:12:25.810Z,10.88
2019-04-03T15:14:56.098Z,10.70
2019-04-03T15:17:28.531Z,10.54
2019-04-03T15:19:59.199Z,10.34
2019-04-03T15:22:31.143Z,10.19
2019-04-03T15:25:01.669Z,10.07
2019-04-03T15:27:32.390Z,9.96
2019-04-03T15:30:03.781Z,9.84
2019-04-03T15:32:34.229Z,9.74
2019-04-03T15:35:05.318Z,9.63
2019-04-03T15:37:40.119Z,9.53
2019-04-03T15:40:14.933Z,9.46
2019-04-03T15:42:46.238Z,9.32
2019-04-03T15:45:16.774Z,9.25
2019-04-03T15:47:47.759Z,9.14
2019-04-03T15:50:18.589Z,9.06
2019-04-03T15:52:50.689Z,8.97
2019-04-03T15:55:24.118Z,8.90
2019-04-03T15:57:53.954Z,8.84
2019-04-03T16:00:25.081Z,8.77
2019-04-03T16:02:57.908Z,8.69
2019-04-03T16:05:30.471Z,8.65
2019-04-03T16:08:00.702Z,8.56
2019-04-03T16:10:34.990Z,8.49
2019-04-03T16:13:05.913Z,8.41
2019-04-03T16:15:36.721Z,8.36
2019-04-03T16:18:08.232Z,8.31
2019-04-03T16:20:39.183Z,8.25
2019-04-03T16:23:10.240Z,8.18
2019-04-03T16:25:41.229Z,8.12
2019-04-03T16:28:13.651Z,8.08
2019-04-03T16:30:46.481Z,8.00
2019-04-03T16:33:22.049Z,7.96
2019-04-03T16:35:49.293Z,7.98
2019-04-03T16:38:22.767Z,7.97
2019-04-03T16:40:53.494Z,7.95
2019-04-03T16:43:24.002Z,7.89
2019-04-03T16:45:54.831Z,7.84
2019-04-03T16:48:25.797Z,7.79
2019-04-03T16:50:58.925Z,7.76
2019-04-03T16:53:31.480Z,7.69
2019-04-03T16:56:02.207Z,7.64
2019-04-03T16:58:33.767Z,7.61
2019-04-03T17:01:04.210Z,7.58
2019-04-03T17:03:34.508Z,7.53
2019-04-03T17:06:04.839Z,7.50
2019-04-03T17:08:38.438Z,7.48
2019-04-03T17:11:11.303Z,7.45
2019-04-03T17:13:41.470Z,7.41
2019-04-03T17:16:13.949Z,7.39
2019-04-03T17:18:47.114Z,7.34
2019-04-03T17:21:16.707Z,7.29
2019-04-03T17:23:47.089Z,7.25
2019-04-03T17:26:17.460Z,7.22
2019-04-03T17:28:47.978Z,7.20
2019-04-03T17:31:20.035Z,7.20
2019-04-03T17:33:49.973Z,7.21
2019-04-03T17:36:22.075Z,7.17
2019-04-03T17:38:52.803Z,7.12
2019-04-03T17:41:23.282Z,7.10
2019-04-03T17:43:55.164Z,7.05
2019-04-03T17:46:25.830Z,7.00
2019-04-03T17:48:58.554Z,6.96
2019-04-03T17:51:34.111Z,6.94
2019-04-03T17:54:07.749Z,6.95
2019-04-03T17:56:41.050Z,6.91
2019-04-03T18:05:50.910Z,6.86
2019-04-03T18:08:21.734Z,6.75
2019-04-03T18:10:54.306Z,6.69
2019-04-03T18:13:25.098Z,6.60
2019-04-03T18:15:58.631Z,6.58
2019-04-03T18:18:33.503Z,6.56
2019-04-03T18:21:04.763Z,6.57
2019-04-03T18:23:34.697Z,6.58
2019-04-03T18:26:04.854Z,6.56
2019-04-03T18:28:35.743Z,6.55
2019-04-03T18:31:06.456Z,6.50
2019-04-03T18:33:38.912Z,6.42
2019-04-03T18:36:09.194Z,6.35
2019-04-03T18:38:39.483Z,6.34
2019-04-03T18:41:18.120Z,6.31
2019-04-03T18:43:48.216Z,6.30
2019-04-03T18:46:31.280Z,6.29
2019-04-03T18:48:54.696Z,6.32
2019-04-03T18:51:23.134Z,6.34
2019-04-03T18:53:52.909Z,6.33
2019-04-03T18:56:23.434Z,6.29
2019-04-03T18:58:55.018Z,6.29
2019-04-03T19:01:28.361Z,6.24
2019-04-03T19:04:02.819Z,6.21
2019-04-03T19:06:34.106Z,6.23
2019-04-03T19:09:10.141Z,6.22
2019-04-03T19:11:40.984Z,6.19
2019-04-03T19:14:11.358Z,6.13
2019-04-03T19:16:51.519Z,6.11
2019-04-03T19:19:23.701Z,6.09
2019-04-03T19:21:57.161Z,6.07
2019-04-03T19:24:27.713Z,6.06
2019-04-03T19:27:04.339Z,6.02
2019-04-03T19:29:35.771Z,5.98
2019-04-03T19:32:06.429Z,5.96
2019-04-03T19:34:36.587Z,5.93
2019-04-03T19:37:10.719Z,5.86
2019-04-03T19:39:40.918Z,5.82
2019-04-03T19:42:14.061Z,5.80
2019-04-03T19:44:47.048Z,5.78
2019-04-03T19:47:19.772Z,5.78
2019-04-03T19:49:53.060Z,5.78
2019-04-03T19:52:23.436Z,5.75
2019-04-03T19:54:53.624Z,5.68
2019-04-03T19:57:27.409Z,5.63
2019-04-03T20:00:01.014Z,5.59
2019-04-03T20:02:29.689Z,5.56
2019-04-03T20:05:00.150Z,5.56
2019-04-03T20:07:30.965Z,5.52
2019-04-03T20:10:03.252Z,5.48
2019-04-03T20:12:37.686Z,5.43
2019-04-03T20:15:13.017Z,5.38
2019-04-03T20:17:43.941Z,5.34
2019-04-03T20:20:33.386Z,5.30
2019-04-03T20:23:02.589Z,5.30
2019-04-03T20:25:33.475Z,5.28
2019-04-03T20:28:03.897Z,5.27
2019-04-03T20:30:34.095Z,5.25
2019-04-03T20:33:04.035Z,5.21
2019-04-03T20:35:34.156Z,5.15
2019-04-03T20:38:04.311Z,5.13
2019-04-03T20:40:34.220Z,5.08
2019-04-03T20:43:04.298Z,5.04
2019-04-03T20:45:34.394Z,4.98
2019-04-03T20:48:04.981Z,4.95
2019-04-03T20:50:36.016Z,4.95
2019-04-03T20:53:10.064Z,4.92
2019-04-03T20:55:40.043Z,4.90
2019-04-03T20:58:10.258Z,4.87
2019-04-03T21:00:40.744Z,4.86
2019-04-03T21:03:12.863Z,4.83
2019-04-03T21:05:42.705Z,4.79
2019-04-03T21:08:13.039Z,4.76
2019-04-03T21:10:43.109Z,4.73
2019-04-03T21:13:15.351Z,4.73
2019-04-03T21:15:45.685Z,4.70
2019-04-03T21:18:16.008Z,4.66
2019-04-03T21:20:46.557Z,4.62
2019-04-03T21:23:16.652Z,4.61
2019-04-03T21:25:46.393Z,4.61
2019-04-03T21:28:16.527Z,4.60
2019-04-03T21:30:49.180Z,4.58
2019-04-03T21:33:19.482Z,4.56
2019-04-03T21:35:57.202Z,4.55
2019-04-03T21:38:29.281Z,4.52
2019-04-03T21:40:59.844Z,4.47
2019-04-03T21:43:30.469Z,4.45
2019-04-03T21:46:02.622Z,4.45
2019-04-03T21:48:32.434Z,4.43
2019-04-03T21:51:02.901Z,4.40
2019-04-03T21:53:33.222Z,4.36
2019-04-03T21:56:05.618Z,4.34
2019-04-03T21:58:35.840Z,4.34
2019-04-03T22:01:26.183Z,4.30
2019-04-03T22:03:56.036Z,4.27
2019-04-03T22:06:27.669Z,4.23
2019-04-03T22:09:00.468Z,4.21
2019-04-03T22:11:30.380Z,4.18
2019-04-03T22:14:00.748Z,4.14
2019-04-03T22:16:30.624Z,4.07
2019-04-03T22:19:01.571Z,4.05
2019-04-03T22:21:32.595Z,4.04
2019-04-03T22:24:03.152Z,4.01
2019-04-03T22:26:33.062Z,3.98
2019-04-03T22:29:03.512Z,3.92
2019-04-03T22:31:33.815Z,3.87
2019-04-03T22:34:04.049Z,3.82
2019-04-03T22:36:34.272Z,3.80
2019-04-03T22:39:06.031Z,3.79
2019-04-03T22:41:37.418Z,3.79
2019-04-03T22:44:07.661Z,3.78
2019-04-03T22:46:37.971Z,3.76
2019-04-03T22:49:07.961Z,3.74
2019-04-03T22:51:38.222Z,3.74
2019-04-03T22:54:08.154Z,3.72
2019-04-03T22:56:38.094Z,3.69
2019-04-03T22:59:08.353Z,3.67
2019-04-03T23:01:38.294Z,3.66
2019-04-03T23:04:08.091Z,3.66
2019-04-03T23:06:37.922Z,3.65
2019-04-03T23:09:08.448Z,3.67
2019-04-03T23:11:38.386Z,3.66
2019-04-03T23:14:08.518Z,3.63
2019-04-03T23:16:38.334Z,3.61
2019-04-03T23:19:08.391Z,3.61
2019-04-03T23:21:38.536Z,3.59
2019-04-03T23:24:08.616Z,3.59
2019-04-03T23:26:38.826Z,3.58
2019-04-03T23:29:08.851Z,3.57
2019-04-03T23:31:39.019Z,3.55
2019-04-03T23:34:08.966Z,3.54
2019-04-03T23:36:39.285Z,3.53
2019-04-03T23:39:09.491Z,3.52
2019-04-03T23:41:39.714Z,3.52
2019-04-03T23:44:10.961Z,3.51
2019-04-03T23:46:41.679Z,3.49
2019-04-03T23:49:11.554Z,3.48
2019-04-03T23:51:41.525Z,3.45
2019-04-03T23:54:11.487Z,3.46
2019-04-03T23:56:41.404Z,3.49
2019-04-03T23:59:13.148Z,3.47
